To NAV CANADA Home Page Login to a new session Search on AWWS site Feedback and Comments Disclaimer Vers la page française équivalente Tips FAQ What's new on the site To the Forecasts and Observations / NOTAM section To "File a Flight Plan" website Publications and other links Update of the User's profile FIC Telephone Numbers My Weather Data Folder Route Weather Data Regional Weather Data Local Weather Data To the Forecasts and Observations / NOTAM section
Request Generated 02/06/2016 at 22:55:18 UTC . Weather information available at that time is displayed.

METAR/TAF

TORONTO/BUTTONVILLE MUNICIPAL/ON    

METAR CYKZ 062200Z 23012G19KT 15SM BKN090 BKN260 03/M08 A3010 RMK
AC6CI1 CI TR SLP203=
METAR CYKZ 062100Z 26011G17KT 15SM SCT060 SCT095 SCT260 03/M09 A3011
RMK CU3AC1CI1 CI TR SLP205=
METAR CYKZ 062000Z 27011G18KT 230V290 15SM BKN045 BKN110 03/M08 A3011
RMK CU5AC2 SLP207=

TAF CYKZ 061738Z 0618/0706 24010KT P6SM FEW030 OVC120
FM062000 25015KT P6SM SCT040
BECMG 0622/0624 24010KT
RMK NXT FCST BY 070000Z=
Your time UTC time
Weather data provided by Environment Canada and NAV CANADA